sensor_id;sensor_type;location;lat;lon;timestamp;temperature;humidity
16958;DHT22;8595;52.542;11.974;2022-10-16T00:01:16;17.30;99.90
16958;DHT22;8595;52.542;11.974;2022-10-16T00:03:45;17.30;99.90
16958;DHT22;8595;52.542;11.974;2022-10-16T00:06:14;17.30;99.90
16958;DHT22;8595;52.542;11.974;2022-10-16T00:08:41;17.40;99.90
16958;DHT22;8595;52.542;11.974;2022-10-16T00:11:10;17.40;99.90
16958;DHT22;8595;52.542;11.974;2022-10-16T00:13:39;17.40;99.90
16958;DHT22;8595;52.542;11.974;2022-10-16T00:16:07;17.40;99.90
16958;DHT22;8595;52.542;11.974;2022-10-16T00:18:35;17.40;99.90
16958;DHT22;8595;52.542;11.974;2022-10-16T00:21:07;17.40;99.90
16958;DHT22;8595;52.542;11.974;2022-10-16T00:23:34;17.30;99.90
16958;DHT22;8595;52.542;11.974;2022-10-16T00:26:04;17.30;99.90
16958;DHT22;8595;52.542;11.974;2022-10-16T00:28:31;17.30;99.90
16958;DHT22;8595;52.542;11.974;2022-10-16T00:30:59;17.20;99.90
16958;DHT22;8595;52.542;11.974;2022-10-16T00:33:28;17.20;99.90
16958;DHT22;8595;52.542;11.974;2022-10-16T00:35:57;17.20;99.90
16958;DHT22;8595;52.542;11.974;2022-10-16T00:38:26;17.10;99.90
16958;DHT22;8595;52.542;11.974;2022-10-16T00:40:53;17.10;99.90
16958;DHT22;8595;52.542;11.974;2022-10-16T00:43:37;17.10;99.90
16958;DHT22;8595;52.542;11.974;2022-10-16T00:46:10;17.10;99.90
16958;DHT22;8595;52.542;11.974;2022-10-16T00:48:37;17.10;99.90
16958;DHT22;8595;52.542;11.974;2022-10-16T00:51:06;17.00;99.90
16958;DHT22;8595;52.542;11.974;2022-10-16T00:53:35;17.00;99.90
16958;DHT22;8595;52.542;11.974;2022-10-16T00:56:02;17.00;99.90
16958;DHT22;8595;52.542;11.974;2022-10-16T00:58:29;17.00;99.90
16958;DHT22;8595;52.542;11.974;2022-10-16T01:00:56;16.90;99.90
16958;DHT22;8595;52.542;11.974;2022-10-16T01:03:25;16.80;99.90
16958;DHT22;8595;52.542;11.974;2022-10-16T01:06:04;16.90;99.90
16958;DHT22;8595;52.542;11.974;2022-10-16T01:08:43;16.80;99.90
16958;DHT22;8595;52.542;11.974;2022-10-16T01:11:19;16.70;99.90
16958;DHT22;8595;52.542;11.974;2022-10-16T01:13:53;16.70;99.90
16958;DHT22;8595;52.542;11.974;2022-10-16T01:16:28;16.70;99.90
16958;DHT22;8595;52.542;11.974;2022-10-16T01:18:59;16.70;99.90
16958;DHT22;8595;52.542;11.974;2022-10-16T01:21:29;16.70;99.90
16958;DHT22;8595;52.542;11.974;2022-10-16T01:24:04;16.60;99.90
16958;DHT22;8595;52.542;11.974;2022-10-16T01:26:42;16.60;99.90
16958;DHT22;8595;52.542;11.974;2022-10-16T01:29:20;16.50;99.90
16958;DHT22;8595;52.542;11.974;2022-10-16T01:31:50;16.50;99.90
16958;DHT22;8595;52.542;11.974;2022-10-16T01:34:21;16.50;99.90
16958;DHT22;8595;52.542;11.974;2022-10-16T01:36:51;16.60;99.90
16958;DHT22;8595;52.542;11.974;2022-10-16T01:39:22;16.60;99.90
16958;DHT22;8595;52.542;11.974;2022-10-16T01:41:56;16.60;99.90
16958;DHT22;8595;52.542;11.974;2022-10-16T01:44:29;16.50;99.90
16958;DHT22;8595;52.542;11.974;2022-10-16T01:46:57;16.40;99.90
16958;DHT22;8595;52.542;11.974;2022-10-16T01:49:27;16.40;99.90
16958;DHT22;8595;52.542;11.974;2022-10-16T01:51:59;16.20;99.90
16958;DHT22;8595;52.542;11.974;2022-10-16T01:54:27;16.10;99.90
16958;DHT22;8595;52.542;11.974;2022-10-16T01:56:56;16.10;99.90
16958;DHT22;8595;52.542;11.974;2022-10-16T01:59:29;16.10;99.90
16958;DHT22;8595;52.542;11.974;2022-10-16T02:02:01;16.10;99.90
16958;DHT22;8595;52.542;11.974;2022-10-16T02:04:33;16.10;99.90
16958;DHT22;8595;52.542;11.974;2022-10-16T02:07:01;16.00;99.90
16958;DHT22;8595;52.542;11.974;2022-10-16T02:09:27;16.00;99.90
16958;DHT22;8595;52.542;11.974;2022-10-16T02:11:57;16.00;99.90
16958;DHT22;8595;52.542;11.974;2022-10-16T02:14:29;16.00;99.90
16958;DHT22;8595;52.542;11.974;2022-10-16T02:16:56;16.00;99.90
16958;DHT22;8595;52.542;11.974;2022-10-16T02:19:23;16.00;99.90
16958;DHT22;8595;52.542;11.974;2022-10-16T02:21:52;16.00;99.90
16958;DHT22;8595;52.542;11.974;2022-10-16T02:24:27;15.90;99.90
16958;DHT22;8595;52.542;11.974;2022-10-16T02:27:01;16.00;99.90
16958;DHT22;8595;52.542;11.974;2022-10-16T02:29:33;16.00;99.90
16958;DHT22;8595;52.542;11.974;2022-10-16T02:32:04;15.90;99.90
16958;DHT22;8595;52.542;11.974;2022-10-16T02:34:33;15.90;99.90
16958;DHT22;8595;52.542;11.974;2022-10-16T02:37:01;15.80;99.90
16958;DHT22;8595;52.542;11.974;2022-10-16T02:39:31;15.70;99.90
16958;DHT22;8595;52.542;11.974;2022-10-16T02:41:58;15.70;99.90
16958;DHT22;8595;52.542;11.974;2022-10-16T02:44:25;15.60;99.90
16958;DHT22;8595;52.542;11.974;2022-10-16T02:46:53;15.60;99.90
16958;DHT22;8595;52.542;11.974;2022-10-16T02:49:19;15.50;99.90
16958;DHT22;8595;52.542;11.974;2022-10-16T02:51:46;15.50;99.90
16958;DHT22;8595;52.542;11.974;2022-10-16T02:54:13;15.50;99.90
16958;DHT22;8595;52.542;11.974;2022-10-16T02:56:40;15.50;99.90
16958;DHT22;8595;52.542;11.974;2022-10-16T02:59:06;15.50;99.90
16958;DHT22;8595;52.542;11.974;2022-10-16T03:01:34;15.40;99.90
16958;DHT22;8595;52.542;11.974;2022-10-16T03:04:03;15.40;99.90
16958;DHT22;8595;52.542;11.974;2022-10-16T03:06:30;15.40;99.90
16958;DHT22;8595;52.542;11.974;2022-10-16T03:08:57;15.30;99.90
16958;DHT22;8595;52.542;11.974;2022-10-16T03:11:24;15.10;99.90
16958;DHT22;8595;52.542;11.974;2022-10-16T03:13:51;15.10;99.90
16958;DHT22;8595;52.542;11.974;2022-10-16T03:16:18;15.00;99.90
16958;DHT22;8595;52.542;11.974;2022-10-16T03:18:48;14.90;99.90
16958;DHT22;8595;52.542;11.974;2022-10-16T03:21:16;15.00;99.90
16958;DHT22;8595;52.542;11.974;2022-10-16T03:23:43;15.20;99.90
16958;DHT22;8595;52.542;11.974;2022-10-16T03:26:09;15.20;99.90
16958;DHT22;8595;52.542;11.974;2022-10-16T03:28:36;15.20;99.90
16958;DHT22;8595;52.542;11.974;2022-10-16T03:31:03;15.30;99.90
16958;DHT22;8595;52.542;11.974;2022-10-16T03:33:30;15.20;99.90
16958;DHT22;8595;52.542;11.974;2022-10-16T03:35:57;15.10;99.90
16958;DHT22;8595;52.542;11.974;2022-10-16T03:38:26;15.00;99.90
16958;DHT22;8595;52.542;11.974;2022-10-16T03:40:53;14.90;99.90
16958;DHT22;8595;52.542;11.974;2022-10-16T03:43:20;14.90;99.90
16958;DHT22;8595;52.542;11.974;2022-10-16T03:45:47;15.00;99.90
16958;DHT22;8595;52.542;11.974;2022-10-16T03:48:13;15.20;99.90
16958;DHT22;8595;52.542;11.974;2022-10-16T03:50:40;15.20;99.90
16958;DHT22;8595;52.542;11.974;2022-10-16T03:53:07;15.20;99.90
16958;DHT22;8595;52.542;11.974;2022-10-16T03:55:36;15.30;99.90
16958;DHT22;8595;52.542;11.974;2022-10-16T03:58:03;15.20;99.90
16958;DHT22;8595;52.542;11.974;2022-10-16T04:00:30;15.20;99.90
16958;DHT22;8595;52.542;11.974;2022-10-16T04:02:56;15.20;99.90
16958;DHT22;8595;52.542;11.974;2022-10-16T04:05:23;15.20;99.90
16958;DHT22;8595;52.542;11.974;2022-10-16T04:07:50;15.20;99.90
16958;DHT22;8595;52.542;11.974;2022-10-16T04:10:16;15.20;99.90
16958;DHT22;8595;52.542;11.974;2022-10-16T04:12:45;15.30;99.90
16958;DHT22;8595;52.542;11.974;2022-10-16T04:15:12;15.30;99.90
16958;DHT22;8595;52.542;11.974;2022-10-16T04:17:39;15.40;99.90
16958;DHT22;8595;52.542;11.974;2022-10-16T04:20:06;15.30;99.90
16958;DHT22;8595;52.542;11.974;2022-10-16T04:22:33;15.30;99.90
16958;DHT22;8595;52.542;11.974;2022-10-16T04:25:00;15.20;99.90
16958;DHT22;8595;52.542;11.974;2022-10-16T04:27:27;15.20;99.90
16958;DHT22;8595;52.542;11.974;2022-10-16T04:29:58;15.00;99.90
16958;DHT22;8595;52.542;11.974;2022-10-16T04:32:25;14.90;99.90
16958;DHT22;8595;52.542;11.974;2022-10-16T04:34:52;14.90;99.90
16958;DHT22;8595;52.542;11.974;2022-10-16T04:37:23;14.90;99.90
16958;DHT22;8595;52.542;11.974;2022-10-16T04:39:50;14.80;99.90
16958;DHT22;8595;52.542;11.974;2022-10-16T04:42:17;14.90;99.90
16958;DHT22;8595;52.542;11.974;2022-10-16T04:44:43;15.00;99.90
16958;DHT22;8595;52.542;11.974;2022-10-16T04:47:12;15.00;99.90
16958;DHT22;8595;52.542;11.974;2022-10-16T04:49:39;15.00;99.90
16958;DHT22;8595;52.542;11.974;2022-10-16T04:52:06;15.00;99.90
16958;DHT22;8595;52.542;11.974;2022-10-16T04:54:34;15.00;99.90
16958;DHT22;8595;52.542;11.974;2022-10-16T04:57:01;15.00;99.90
16958;DHT22;8595;52.542;11.974;2022-10-16T04:59:28;15.10;99.90
16958;DHT22;8595;52.542;11.974;2022-10-16T05:01:54;15.10;99.90
16958;DHT22;8595;52.542;11.974;2022-10-16T05:04:23;15.10;99.90
16958;DHT22;8595;52.542;11.974;2022-10-16T05:06:49;15.10;99.90
16958;DHT22;8595;52.542;11.974;2022-10-16T05:09:16;15.10;99.90
16958;DHT22;8595;52.542;11.974;2022-10-16T05:11:43;15.20;99.90
16958;DHT22;8595;52.542;11.974;2022-10-16T05:14:10;15.20;99.90
16958;DHT22;8595;52.542;11.974;2022-10-16T05:16:37;15.10;99.90
16958;DHT22;8595;52.542;11.974;2022-10-16T05:19:04;15.10;99.90
16958;DHT22;8595;52.542;11.974;2022-10-16T05:21:32;15.00;99.90
16958;DHT22;8595;52.542;11.974;2022-10-16T05:23:59;15.10;99.90
16958;DHT22;8595;52.542;11.974;2022-10-16T05:26:25;15.00;99.90
16958;DHT22;8595;52.542;11.974;2022-10-16T05:28:52;15.00;99.90
16958;DHT22;8595;52.542;11.974;2022-10-16T05:31:19;14.90;99.90
16958;DHT22;8595;52.542;11.974;2022-10-16T05:33:46;14.90;99.90
16958;DHT22;8595;52.542;11.974;2022-10-16T05:36:12;14.90;99.90
16958;DHT22;8595;52.542;11.974;2022-10-16T05:38:40;14.90;99.90
16958;DHT22;8595;52.542;11.974;2022-10-16T05:41:07;14.90;99.90
16958;DHT22;8595;52.542;11.974;2022-10-16T05:43:34;14.90;99.90
16958;DHT22;8595;52.542;11.974;2022-10-16T05:46:03;14.90;99.90
16958;DHT22;8595;52.542;11.974;2022-10-16T05:48:31;14.90;99.90
16958;DHT22;8595;52.542;11.974;2022-10-16T05:50:59;14.90;99.90
16958;DHT22;8595;52.542;11.974;2022-10-16T05:53:27;14.90;99.90
16958;DHT22;8595;52.542;11.974;2022-10-16T05:55:56;14.90;99.90
16958;DHT22;8595;52.542;11.974;2022-10-16T05:58:24;14.80;99.90
16958;DHT22;8595;52.542;11.974;2022-10-16T06:00:55;14.80;99.90
16958;DHT22;8595;52.542;11.974;2022-10-16T06:03:22;14.90;99.90
16958;DHT22;8595;52.542;11.974;2022-10-16T06:05:49;14.90;99.90
16958;DHT22;8595;52.542;11.974;2022-10-16T06:08:16;15.00;99.90
16958;DHT22;8595;52.542;11.974;2022-10-16T06:10:43;15.00;99.90
16958;DHT22;8595;52.542;11.974;2022-10-16T06:13:12;15.00;99.90
16958;DHT22;8595;52.542;11.974;2022-10-16T06:15:39;14.90;99.90
16958;DHT22;8595;52.542;11.974;2022-10-16T06:18:08;14.90;99.90
16958;DHT22;8595;52.542;11.974;2022-10-16T06:20:35;15.00;99.90
16958;DHT22;8595;52.542;11.974;2022-10-16T06:23:03;15.00;99.90
16958;DHT22;8595;52.542;11.974;2022-10-16T06:25:30;15.00;99.90
16958;DHT22;8595;52.542;11.974;2022-10-16T06:27:57;15.00;99.90
16958;DHT22;8595;52.542;11.974;2022-10-16T06:30:25;15.00;99.90
16958;DHT22;8595;52.542;11.974;2022-10-16T06:32:51;15.00;99.90
16958;DHT22;8595;52.542;11.974;2022-10-16T06:35:18;15.00;99.90
16958;DHT22;8595;52.542;11.974;2022-10-16T06:37:45;15.00;99.90
16958;DHT22;8595;52.542;11.974;2022-10-16T06:40:12;15.10;99.90
16958;DHT22;8595;52.542;11.974;2022-10-16T06:42:40;15.10;99.90
16958;DHT22;8595;52.542;11.974;2022-10-16T06:45:07;15.10;99.90
16958;DHT22;8595;52.542;11.974;2022-10-16T06:47:35;15.00;99.90
16958;DHT22;8595;52.542;11.974;2022-10-16T06:50:03;15.10;99.90
16958;DHT22;8595;52.542;11.974;2022-10-16T06:52:32;15.10;99.90
16958;DHT22;8595;52.542;11.974;2022-10-16T06:54:59;15.10;99.90
16958;DHT22;8595;52.542;11.974;2022-10-16T06:57:26;15.10;99.90
16958;DHT22;8595;52.542;11.974;2022-10-16T06:59:53;15.10;99.90
16958;DHT22;8595;52.542;11.974;2022-10-16T07:02:19;14.90;99.90
16958;DHT22;8595;52.542;11.974;2022-10-16T07:04:47;15.00;99.90
16958;DHT22;8595;52.542;11.974;2022-10-16T07:07:14;15.00;99.90
16958;DHT22;8595;52.542;11.974;2022-10-16T07:09:41;15.10;99.90
16958;DHT22;8595;52.542;11.974;2022-10-16T07:12:08;15.10;99.90
16958;DHT22;8595;52.542;11.974;2022-10-16T07:14:35;15.10;99.90
16958;DHT22;8595;52.542;11.974;2022-10-16T07:17:02;15.10;99.90
16958;DHT22;8595;52.542;11.974;2022-10-16T07:19:29;15.20;99.90
16958;DHT22;8595;52.542;11.974;2022-10-16T07:21:57;15.20;99.90
16958;DHT22;8595;52.542;11.974;2022-10-16T07:24:24;15.20;99.90
16958;DHT22;8595;52.542;11.974;2022-10-16T07:26:50;15.20;99.90
16958;DHT22;8595;52.542;11.974;2022-10-16T07:29:19;15.30;99.90
16958;DHT22;8595;52.542;11.974;2022-10-16T07:31:47;15.90;99.90
16958;DHT22;8595;52.542;11.974;2022-10-16T07:34:16;16.00;99.90
16958;DHT22;8595;52.542;11.974;2022-10-16T07:36:43;16.20;99.90
16958;DHT22;8595;52.542;11.974;2022-10-16T07:39:12;16.20;99.90
16958;DHT22;8595;52.542;11.974;2022-10-16T07:41:39;16.20;99.90
16958;DHT22;8595;52.542;11.974;2022-10-16T07:44:06;16.20;99.90
16958;DHT22;8595;52.542;11.974;2022-10-16T07:46:33;16.20;99.90
16958;DHT22;8595;52.542;11.974;2022-10-16T07:49:01;16.40;99.90
16958;DHT22;8595;52.542;11.974;2022-10-16T07:51:28;16.90;99.90
16958;DHT22;8595;52.542;11.974;2022-10-16T07:53:55;17.00;99.90
16958;DHT22;8595;52.542;11.974;2022-10-16T07:56:23;17.00;99.90
16958;DHT22;8595;52.542;11.974;2022-10-16T07:58:50;17.00;99.90
16958;DHT22;8595;52.542;11.974;2022-10-16T08:01:18;17.10;99.90
16958;DHT22;8595;52.542;11.974;2022-10-16T08:03:46;17.30;99.90
16958;DHT22;8595;52.542;11.974;2022-10-16T08:06:13;17.50;99.90
16958;DHT22;8595;52.542;11.974;2022-10-16T08:08:40;17.80;99.90
16958;DHT22;8595;52.542;11.974;2022-10-16T08:11:07;18.00;99.90
16958;DHT22;8595;52.542;11.974;2022-10-16T08:13:35;18.20;99.90
16958;DHT22;8595;52.542;11.974;2022-10-16T08:16:02;18.40;99.90
16958;DHT22;8595;52.542;11.974;2022-10-16T08:18:33;18.40;99.90
16958;DHT22;8595;52.542;11.974;2022-10-16T08:21:01;18.40;99.90
16958;DHT22;8595;52.542;11.974;2022-10-16T08:23:28;18.60;99.90
16958;DHT22;8595;52.542;11.974;2022-10-16T08:25:55;19.50;99.90
16958;DHT22;8595;52.542;11.974;2022-10-16T08:28:23;20.00;99.90
16958;DHT22;8595;52.542;11.974;2022-10-16T08:30:51;20.50;99.90
16958;DHT22;8595;52.542;11.974;2022-10-16T08:33:18;20.50;99.90
16958;DHT22;8595;52.542;11.974;2022-10-16T08:35:50;20.90;99.90
16958;DHT22;8595;52.542;11.974;2022-10-16T08:38:17;21.70;99.90
16958;DHT22;8595;52.542;11.974;2022-10-16T08:40:44;22.20;99.90
16958;DHT22;8595;52.542;11.974;2022-10-16T08:43:24;22.80;99.90
16958;DHT22;8595;52.542;11.974;2022-10-16T08:46:18;22.50;99.90
16958;DHT22;8595;52.542;11.974;2022-10-16T08:48:48;21.30;99.90
16958;DHT22;8595;52.542;11.974;2022-10-16T08:51:20;21.10;99.90
16958;DHT22;8595;52.542;11.974;2022-10-16T08:53:52;21.10;99.90
16958;DHT22;8595;52.542;11.974;2022-10-16T08:56:20;21.20;99.90
16958;DHT22;8595;52.542;11.974;2022-10-16T08:58:48;21.00;99.90
16958;DHT22;8595;52.542;11.974;2022-10-16T09:01:19;21.40;99.90
16958;DHT22;8595;52.542;11.974;2022-10-16T09:06:55;22.10;99.90
16958;DHT22;8595;52.542;11.974;2022-10-16T09:09:41;21.50;99.90
16958;DHT22;8595;52.542;11.974;2022-10-16T09:12:15;20.90;99.90
16958;DHT22;8595;52.542;11.974;2022-10-16T09:14:58;20.80;99.90
16958;DHT22;8595;52.542;11.974;2022-10-16T09:17:37;20.60;99.90
16958;DHT22;8595;52.542;11.974;2022-10-16T09:20:20;21.50;99.90
16958;DHT22;8595;52.542;11.974;2022-10-16T09:22:53;21.90;99.90
16958;DHT22;8595;52.542;11.974;2022-10-16T09:25:21;21.50;99.90
16958;DHT22;8595;52.542;11.974;2022-10-16T09:27:52;21.30;99.90
16958;DHT22;8595;52.542;11.974;2022-10-16T09:30:21;21.80;99.90
16958;DHT22;8595;52.542;11.974;2022-10-16T09:32:51;22.00;99.90
16958;DHT22;8595;52.542;11.974;2022-10-16T09:35:21;22.10;99.90
16958;DHT22;8595;52.542;11.974;2022-10-16T09:37:50;22.20;99.90
16958;DHT22;8595;52.542;11.974;2022-10-16T09:40:26;22.00;99.90
16958;DHT22;8595;52.542;11.974;2022-10-16T09:42:57;21.70;99.90
16958;DHT22;8595;52.542;11.974;2022-10-16T09:45:25;21.10;99.90
16958;DHT22;8595;52.542;11.974;2022-10-16T09:47:53;20.60;99.90
16958;DHT22;8595;52.542;11.974;2022-10-16T09:50:23;20.30;99.90
16958;DHT22;8595;52.542;11.974;2022-10-16T09:53:04;20.10;99.90
16958;DHT22;8595;52.542;11.974;2022-10-16T09:55:31;20.10;99.90
16958;DHT22;8595;52.542;11.974;2022-10-16T09:57:58;20.10;99.90
16958;DHT22;8595;52.542;11.974;2022-10-16T10:00:25;20.10;99.90
16958;DHT22;8595;52.542;11.974;2022-10-16T10:02:53;20.00;99.90
16958;DHT22;8595;52.542;11.974;2022-10-16T10:05:22;20.00;99.90
16958;DHT22;8595;52.542;11.974;2022-10-16T10:07:56;20.10;99.90
16958;DHT22;8595;52.542;11.974;2022-10-16T10:10:25;20.00;99.90
16958;DHT22;8595;52.542;11.974;2022-10-16T10:12:53;19.90;99.90
16958;DHT22;8595;52.542;11.974;2022-10-16T10:15:21;20.00;99.90
16958;DHT22;8595;52.542;11.974;2022-10-16T10:17:51;20.10;99.90
16958;DHT22;8595;52.542;11.974;2022-10-16T10:20:27;20.10;99.90
16958;DHT22;8595;52.542;11.974;2022-10-16T10:22:55;20.40;99.90
16958;DHT22;8595;52.542;11.974;2022-10-16T10:25:38;20.40;99.90
16958;DHT22;8595;52.542;11.974;2022-10-16T10:28:29;20.50;99.90
16958;DHT22;8595;52.542;11.974;2022-10-16T10:31:06;20.50;99.90
16958;DHT22;8595;52.542;11.974;2022-10-16T10:33:43;20.20;99.90
16958;DHT22;8595;52.542;11.974;2022-10-16T10:36:27;20.60;99.90
16958;DHT22;8595;52.542;11.974;2022-10-16T10:38:57;20.80;99.90
16958;DHT22;8595;52.542;11.974;2022-10-16T10:44:18;20.60;99.90
16958;DHT22;8595;52.542;11.974;2022-10-16T10:46:50;20.80;99.90
16958;DHT22;8595;52.542;11.974;2022-10-16T10:49:33;20.70;99.90
16958;DHT22;8595;52.542;11.974;2022-10-16T10:52:19;20.80;99.90
16958;DHT22;8595;52.542;11.974;2022-10-16T10:54:55;20.70;99.90
16958;DHT22;8595;52.542;11.974;2022-10-16T10:57:32;21.50;99.90
16958;DHT22;8595;52.542;11.974;2022-10-16T11:00:16;22.10;99.90
16958;DHT22;8595;52.542;11.974;2022-10-16T11:02:48;22.70;99.90
16958;DHT22;8595;52.542;11.974;2022-10-16T11:05:28;22.80;99.90
16958;DHT22;8595;52.542;11.974;2022-10-16T11:08:01;22.60;99.90
16958;DHT22;8595;52.542;11.974;2022-10-16T11:10:33;22.40;99.90
16958;DHT22;8595;52.542;11.974;2022-10-16T11:13:10;22.20;99.90
16958;DHT22;8595;52.542;11.974;2022-10-16T11:15:43;22.40;99.90
16958;DHT22;8595;52.542;11.974;2022-10-16T11:18:16;22.30;99.90
16958;DHT22;8595;52.542;11.974;2022-10-16T11:20:49;22.00;99.90
16958;DHT22;8595;52.542;11.974;2022-10-16T11:23:23;21.50;99.90
16958;DHT22;8595;52.542;11.974;2022-10-16T11:25:52;21.90;99.90
16958;DHT22;8595;52.542;11.974;2022-10-16T11:28:23;22.90;99.90
16958;DHT22;8595;52.542;11.974;2022-10-16T11:30:55;23.60;99.90
16958;DHT22;8595;52.542;11.974;2022-10-16T11:33:28;23.80;99.90
16958;DHT22;8595;52.542;11.974;2022-10-16T11:36:02;24.10;99.90
16958;DHT22;8595;52.542;11.974;2022-10-16T11:38:37;24.10;99.90
16958;DHT22;8595;52.542;11.974;2022-10-16T11:41:15;24.40;99.90
16958;DHT22;8595;52.542;11.974;2022-10-16T11:43:50;24.30;99.90
16958;DHT22;8595;52.542;11.974;2022-10-16T11:46:21;24.80;99.90
16958;DHT22;8595;52.542;11.974;2022-10-16T11:48:53;25.20;99.90
16958;DHT22;8595;52.542;11.974;2022-10-16T11:51:25;25.10;99.90
16958;DHT22;8595;52.542;11.974;2022-10-16T11:54:01;25.10;99.90
16958;DHT22;8595;52.542;11.974;2022-10-16T11:56:30;25.20;99.90
16958;DHT22;8595;52.542;11.974;2022-10-16T11:59:01;25.00;99.90
16958;DHT22;8595;52.542;11.974;2022-10-16T12:01:35;24.80;99.90
16958;DHT22;8595;52.542;11.974;2022-10-16T12:04:19;24.60;99.90
16958;DHT22;8595;52.542;11.974;2022-10-16T12:06:52;23.90;99.90
16958;DHT22;8595;52.542;11.974;2022-10-16T12:09:24;23.50;99.90
16958;DHT22;8595;52.542;11.974;2022-10-16T12:11:52;23.10;99.90
16958;DHT22;8595;52.542;11.974;2022-10-16T12:14:22;22.60;99.90
16958;DHT22;8595;52.542;11.974;2022-10-16T12:17:00;22.10;99.90
16958;DHT22;8595;52.542;11.974;2022-10-16T12:19:29;21.90;99.90
16958;DHT22;8595;52.542;11.974;2022-10-16T12:21:58;21.70;99.90
16958;DHT22;8595;52.542;11.974;2022-10-16T12:24:34;21.40;99.90
16958;DHT22;8595;52.542;11.974;2022-10-16T12:27:03;21.20;99.90
16958;DHT22;8595;52.542;11.974;2022-10-16T12:29:34;21.60;99.90
16958;DHT22;8595;52.542;11.974;2022-10-16T12:32:04;21.50;99.90
16958;DHT22;8595;52.542;11.974;2022-10-16T12:34:38;22.00;99.90
16958;DHT22;8595;52.542;11.974;2022-10-16T12:37:14;22.10;99.90
16958;DHT22;8595;52.542;11.974;2022-10-16T12:39:43;21.80;99.90
16958;DHT22;8595;52.542;11.974;2022-10-16T12:42:31;21.50;99.90
16958;DHT22;8595;52.542;11.974;2022-10-16T12:44:59;21.50;99.90
16958;DHT22;8595;52.542;11.974;2022-10-16T12:47:37;21.80;99.90
16958;DHT22;8595;52.542;11.974;2022-10-16T12:50:26;22.40;99.90
16958;DHT22;8595;52.542;11.974;2022-10-16T12:52:54;23.10;99.90
16958;DHT22;8595;52.542;11.974;2022-10-16T12:55:23;23.80;99.90
16958;DHT22;8595;52.542;11.974;2022-10-16T12:58:10;24.30;99.90
16958;DHT22;8595;52.542;11.974;2022-10-16T13:00:44;24.60;99.90
16958;DHT22;8595;52.542;11.974;2022-10-16T13:03:43;25.10;99.90
16958;DHT22;8595;52.542;11.974;2022-10-16T13:06:22;24.90;99.90
16958;DHT22;8595;52.542;11.974;2022-10-16T13:09:05;25.10;99.90
16958;DHT22;8595;52.542;11.974;2022-10-16T13:11:47;24.70;99.90
16958;DHT22;8595;52.542;11.974;2022-10-16T13:14:41;24.60;99.90
16958;DHT22;8595;52.542;11.974;2022-10-16T13:17:15;24.80;99.90
16958;DHT22;8595;52.542;11.974;2022-10-16T13:19:48;24.70;99.90
16958;DHT22;8595;52.542;11.974;2022-10-16T13:22:24;25.30;99.90
16958;DHT22;8595;52.542;11.974;2022-10-16T13:25:01;25.60;99.90
16958;DHT22;8595;52.542;11.974;2022-10-16T13:27:40;25.60;99.90
16958;DHT22;8595;52.542;11.974;2022-10-16T13:30:13;25.20;99.90
16958;DHT22;8595;52.542;11.974;2022-10-16T13:32:45;25.40;99.90
16958;DHT22;8595;52.542;11.974;2022-10-16T13:35:21;25.70;99.90
16958;DHT22;8595;52.542;11.974;2022-10-16T13:37:48;25.60;99.90
16958;DHT22;8595;52.542;11.974;2022-10-16T13:40:20;25.60;99.90
16958;DHT22;8595;52.542;11.974;2022-10-16T13:42:49;25.80;99.90
16958;DHT22;8595;52.542;11.974;2022-10-16T13:45:21;26.10;99.90
16958;DHT22;8595;52.542;11.974;2022-10-16T13:47:48;25.90;99.90
16958;DHT22;8595;52.542;11.974;2022-10-16T13:50:17;25.90;99.90
16958;DHT22;8595;52.542;11.974;2022-10-16T13:52:44;26.00;99.90
16958;DHT22;8595;52.542;11.974;2022-10-16T13:55:12;26.10;99.90
16958;DHT22;8595;52.542;11.974;2022-10-16T13:57:39;26.20;99.90
16958;DHT22;8595;52.542;11.974;2022-10-16T14:00:20;26.30;99.90
16958;DHT22;8595;52.542;11.974;2022-10-16T14:02:51;26.30;99.90
16958;DHT22;8595;52.542;11.974;2022-10-16T14:05:19;26.10;99.90
16958;DHT22;8595;52.542;11.974;2022-10-16T14:07:49;26.30;99.90
16958;DHT22;8595;52.542;11.974;2022-10-16T14:10:22;26.30;99.90
16958;DHT22;8595;52.542;11.974;2022-10-16T14:12:59;25.90;99.90
16958;DHT22;8595;52.542;11.974;2022-10-16T14:15:29;25.50;99.90
16958;DHT22;8595;52.542;11.974;2022-10-16T14:17:58;25.30;99.90
16958;DHT22;8595;52.542;11.974;2022-10-16T14:20:28;25.70;99.90
16958;DHT22;8595;52.542;11.974;2022-10-16T14:23:01;25.70;99.90
16958;DHT22;8595;52.542;11.974;2022-10-16T14:25:30;25.80;99.90
16958;DHT22;8595;52.542;11.974;2022-10-16T14:27:59;25.60;99.90
16958;DHT22;8595;52.542;11.974;2022-10-16T14:30:28;25.30;99.90
16958;DHT22;8595;52.542;11.974;2022-10-16T14:32:57;25.10;99.90
16958;DHT22;8595;52.542;11.974;2022-10-16T14:35:27;25.00;99.90
16958;DHT22;8595;52.542;11.974;2022-10-16T14:37:54;25.10;99.90
16958;DHT22;8595;52.542;11.974;2022-10-16T14:40:24;25.10;99.90
16958;DHT22;8595;52.542;11.974;2022-10-16T14:42:52;24.80;99.90
16958;DHT22;8595;52.542;11.974;2022-10-16T14:45:20;25.10;99.90
16958;DHT22;8595;52.542;11.974;2022-10-16T14:47:51;24.80;99.90
16958;DHT22;8595;52.542;11.974;2022-10-16T14:50:19;24.90;99.90
16958;DHT22;8595;52.542;11.974;2022-10-16T14:52:45;24.50;99.90
16958;DHT22;8595;52.542;11.974;2022-10-16T14:55:13;24.40;99.90
16958;DHT22;8595;52.542;11.974;2022-10-16T14:57:40;24.60;99.90
16958;DHT22;8595;52.542;11.974;2022-10-16T15:00:15;24.60;99.90
16958;DHT22;8595;52.542;11.974;2022-10-16T15:02:42;24.30;99.90
16958;DHT22;8595;52.542;11.974;2022-10-16T15:05:16;24.20;99.90
16958;DHT22;8595;52.542;11.974;2022-10-16T15:07:44;24.30;99.90
16958;DHT22;8595;52.542;11.974;2022-10-16T15:10:12;24.00;99.90
16958;DHT22;8595;52.542;11.974;2022-10-16T15:12:40;23.90;99.90
16958;DHT22;8595;52.542;11.974;2022-10-16T15:15:24;23.30;99.90
16958;DHT22;8595;52.542;11.974;2022-10-16T15:17:52;22.80;99.90
16958;DHT22;8595;52.542;11.974;2022-10-16T15:20:23;22.60;99.90
16958;DHT22;8595;52.542;11.974;2022-10-16T15:22:50;22.40;99.90
16958;DHT22;8595;52.542;11.974;2022-10-16T15:25:27;22.20;99.90
16958;DHT22;8595;52.542;11.974;2022-10-16T15:27:57;21.90;99.90
16958;DHT22;8595;52.542;11.974;2022-10-16T15:30:24;21.80;99.90
16958;DHT22;8595;52.542;11.974;2022-10-16T15:32:50;21.60;99.90
16958;DHT22;8595;52.542;11.974;2022-10-16T15:35:17;21.60;99.90
16958;DHT22;8595;52.542;11.974;2022-10-16T15:37:46;21.40;99.90
16958;DHT22;8595;52.542;11.974;2022-10-16T15:40:14;21.30;99.90
16958;DHT22;8595;52.542;11.974;2022-10-16T15:42:41;21.10;99.90
16958;DHT22;8595;52.542;11.974;2022-10-16T15:45:09;20.90;99.90
16958;DHT22;8595;52.542;11.974;2022-10-16T15:47:36;20.90;99.90
16958;DHT22;8595;52.542;11.974;2022-10-16T15:50:04;20.80;99.90
16958;DHT22;8595;52.542;11.974;2022-10-16T15:52:31;20.80;99.90
16958;DHT22;8595;52.542;11.974;2022-10-16T15:54:59;20.70;99.90